Mankato, MN

3:37 PM CDT on April 25, 2017 (GMT -0500)
Mankato Regional

Weather History for KMKT - November, 2012

Change the Weather History Date:

Sunday, November 18, 2012

  Actual Average Record
Temperature  
Mean Temperature 51 °F -  
Max Temperature 60 °F 38 °F 66 °F (1999)
Min Temperature 42 °F 24 °F 6 °F (2014)
Degree Days  
Heating Degree Days 14    
Growing Degree Days 1 (Base 50)    
Moisture  
Dew Point 31 °F    
Average Humidity 47    
Maximum Humidity 58    
Minimum Humidity 36    
Precipitation  
Precipitation 0.00 in - - ()
Sea Level Pressure  
Sea Level Pressure 30.10 in    
Wind  
Wind Speed 15 mph (South)    
Max Wind Speed 21 mph    
Max Gust Speed 26 mph    
Visibility 10 miles    
Events      
Averages and records for this station are not official NWS values.
T = Trace of Precipitation, MM = Missing Value Source: NWS Daily Summary

Daily Weather History Graph

Daily Weather History Graph

Search for Another Location

Airport or City:

Trip Planner

Search our weather history database for the weather conditions in past years. The results will help you decide how hot, cold, wet, or windy it might be!

Date:

Astronomy

Nov. 18, 2012 Rise Set
Actual Time 7:15 AM CST 4:45 PM CST
Civil Twilight 6:44 AM CST 5:17 PM CST
Nautical Twilight 6:08 AM CST 5:52 PM CST
Astronomical Twilight 5:34 AM CST 6:26 PM CST
Moon 11:40 AM CST (11/18) 10:09 PM CST (11/18)
Length of Visible Light 10h 33m
Length of Day
9h 29m
Waxing Crescent, 30% of the Moon is Illuminated
Nov 18
Waxing Crescent
Nov 20
First Quarter
Nov 28
Full
Dec 6
Last Quarter
Dec 13
New

Hourly Weather History & Observations

Time (CST) Temp. Windchill Dew Point Humidity Pressure Visibility Wind Dir Wind Speed Gust Speed Precip Events Conditions
12:15 AM 48.2 °F - 33.8 °F 58% 30.18 in 10.0 mi South 18.4 mph 21.9 mph N/A   Overcast
12:35 AM 50.0 °F - 32.0 °F 50% 30.17 in 10.0 mi South 17.3 mph 24.2 mph N/A   Overcast
12:55 AM 50.0 °F - 32.0 °F 50% 30.17 in 10.0 mi South 15.0 mph 23.0 mph N/A   Overcast
1:15 AM 48.2 °F - 32.0 °F 54% 30.17 in 10.0 mi South 17.3 mph 25.3 mph N/A   Overcast
1:55 AM 48.2 °F - 30.2 °F 50% 30.16 in 10.0 mi South 16.1 mph 23.0 mph N/A   Overcast
2:15 AM 48.2 °F - 30.2 °F 50% 30.16 in 10.0 mi South 16.1 mph 25.3 mph N/A   Overcast
2:35 AM 48.2 °F - 30.2 °F 50% 30.15 in 10.0 mi South 17.3 mph 21.9 mph N/A   Overcast
2:55 AM 48.2 °F - 30.2 °F 50% 30.15 in 10.0 mi South 15.0 mph 21.9 mph N/A   Overcast
3:15 AM 46.4 °F 39.8 °F 30.2 °F 53% 30.15 in 10.0 mi South 16.1 mph 21.9 mph N/A   Overcast
3:35 AM 46.4 °F 39.8 °F 30.2 °F 53% 30.14 in 10.0 mi South 16.1 mph 21.9 mph N/A   Overcast
3:55 AM 46.4 °F 40.1 °F 30.2 °F 53% 30.13 in 10.0 mi South 15.0 mph 23.0 mph N/A   Overcast
4:15 AM 46.4 °F 39.8 °F 30.2 °F 53% 30.13 in 10.0 mi South 16.1 mph 21.9 mph N/A   Mostly Cloudy
4:35 AM 46.4 °F 40.4 °F 30.2 °F 53% 30.13 in 10.0 mi South 13.8 mph 20.7 mph N/A   Partly Cloudy
4:55 AM 46.4 °F 40.4 °F 30.2 °F 53% 30.13 in 10.0 mi South 13.8 mph - N/A   Clear
5:15 AM 46.4 °F 40.1 °F 30.2 °F 53% 30.13 in 10.0 mi South 15.0 mph 19.6 mph N/A   Clear
5:35 AM 46.4 °F 40.4 °F 28.4 °F 50% 30.12 in 10.0 mi South 13.8 mph 19.6 mph N/A   Clear
5:55 AM 46.4 °F 40.7 °F 28.4 °F 50% 30.12 in 10.0 mi South 12.7 mph 21.9 mph N/A   Clear
6:15 AM 46.4 °F 41.1 °F 28.4 °F 50% 30.13 in 10.0 mi South 11.5 mph 19.6 mph N/A   Clear
6:35 AM 44.6 °F 38.8 °F 28.4 °F 53% 30.12 in 10.0 mi South 11.5 mph - N/A   Clear
6:55 AM 44.6 °F 38.4 °F 28.4 °F 53% 30.12 in 10.0 mi South 12.7 mph - N/A   Clear
7:15 AM 44.6 °F 39.2 °F 28.4 °F 53% 30.12 in 10.0 mi South 10.4 mph - N/A   Clear
7:35 AM 42.8 °F 36.6 °F 28.4 °F 57% 30.12 in 10.0 mi South 11.5 mph - N/A   Clear
7:55 AM 44.6 °F 38.4 °F 28.4 °F 53% 30.11 in 10.0 mi South 12.7 mph - N/A   Clear
8:15 AM 44.6 °F 38.4 °F 28.4 °F 53% 30.11 in 10.0 mi South 12.7 mph - N/A   Clear
8:35 AM 44.6 °F 38.4 °F 28.4 °F 53% 30.12 in 10.0 mi South 12.7 mph - N/A   Clear
8:55 AM 46.4 °F 40.4 °F 28.4 °F 50% 30.12 in 10.0 mi South 13.8 mph 19.6 mph N/A   Clear
9:15 AM 46.4 °F 40.4 °F 30.2 °F 53% 30.12 in 10.0 mi South 13.8 mph 19.6 mph N/A   Clear
9:35 AM 48.2 °F - 30.2 °F 50% 30.12 in 10.0 mi South 15.0 mph 23.0 mph N/A   Clear
9:55 AM 48.2 °F - 30.2 °F 50% 30.11 in 10.0 mi South 16.1 mph 23.0 mph N/A   Clear
10:15 AM 51.8 °F - 30.2 °F 44% 30.11 in 10.0 mi South 16.1 mph 23.0 mph N/A   Clear
10:35 AM 53.6 °F - 30.2 °F 41% 30.11 in 10.0 mi South 20.7 mph 26.5 mph N/A   Clear
10:55 AM 53.6 °F - 30.2 °F 41% 30.11 in 10.0 mi South 20.7 mph 26.5 mph N/A   Clear
11:15 AM 53.6 °F - 30.2 °F 41% 30.10 in 10.0 mi SSW 18.4 mph 25.3 mph N/A   Clear
11:35 AM 55.4 °F - 30.2 °F 38% 30.09 in 10.0 mi South 18.4 mph 26.5 mph N/A   Clear
11:55 AM 55.4 °F - 30.2 °F 38% 30.09 in 10.0 mi South 18.4 mph 24.2 mph N/A   Clear
12:15 PM 55.4 °F - 30.2 °F 38% 30.08 in 10.0 mi SSW 17.3 mph 26.5 mph N/A   Clear
12:35 PM 57.2 °F - 30.2 °F 36% 30.08 in 10.0 mi South 17.3 mph 24.2 mph N/A   Clear
12:55 PM 57.2 °F - 30.2 °F 36% 30.07 in 10.0 mi SSW 16.1 mph 24.2 mph N/A   Clear
1:15 PM 57.2 °F - 32.0 °F 38% 30.07 in 10.0 mi South 17.3 mph 20.7 mph N/A   Clear
1:35 PM 59.0 °F - 33.8 °F 39% 30.06 in 10.0 mi South 13.8 mph - N/A   Clear
2:15 PM 59.0 °F - 32.0 °F 36% 30.06 in 10.0 mi South 17.3 mph 26.5 mph N/A   Clear
2:35 PM 59.0 °F - 32.0 °F 36% 30.05 in 10.0 mi South 18.4 mph 26.5 mph N/A   Clear
2:55 PM 57.2 °F - 32.0 °F 38% 30.06 in 10.0 mi South 13.8 mph 23.0 mph N/A   Clear
3:15 PM 57.2 °F - 33.8 °F 41% 30.05 in 10.0 mi South 12.7 mph 19.6 mph N/A   Clear
3:35 PM 59.0 °F - 33.8 °F 39% 30.05 in 10.0 mi South 18.4 mph 24.2 mph N/A   Clear
3:55 PM 60.8 °F - 33.8 °F 36% 30.06 in 10.0 mi South 15.0 mph 24.2 mph N/A   Clear
4:15 PM 59.0 °F - 32.0 °F 36% 30.06 in 10.0 mi South 17.3 mph 25.3 mph N/A   Clear
4:35 PM 57.2 °F - 32.0 °F 38% 30.07 in 10.0 mi South 13.8 mph 21.9 mph N/A   Clear
4:55 PM 57.2 °F - 32.0 °F 38% 30.07 in 10.0 mi South 13.8 mph 19.6 mph N/A   Clear
5:15 PM 55.4 °F - 32.0 °F 41% 30.07 in 10.0 mi South 13.8 mph 19.6 mph N/A   Clear
5:35 PM 53.6 °F - 32.0 °F 44% 30.08 in 10.0 mi South 13.8 mph 19.6 mph N/A   Clear
5:55 PM 53.6 °F - 32.0 °F 44% 30.08 in 10.0 mi SSE 13.8 mph - N/A   Clear
6:15 PM 53.6 °F - 32.0 °F 44% 30.08 in 10.0 mi SSE 13.8 mph 20.7 mph N/A   Clear
6:35 PM 53.6 °F - 32.0 °F 44% 30.08 in 10.0 mi SSE 15.0 mph 20.7 mph N/A   Clear
6:55 PM 53.6 °F - 32.0 °F 44% 30.07 in 10.0 mi South 15.0 mph 23.0 mph N/A   Clear
7:15 PM 51.8 °F - 30.2 °F 44% 30.08 in 10.0 mi SSE 16.1 mph 20.7 mph N/A   Clear
7:35 PM 51.8 °F - 32.0 °F 47% 30.08 in 10.0 mi South 13.8 mph 20.7 mph N/A   Clear
7:55 PM 51.8 °F - 32.0 °F 47% 30.08 in 10.0 mi South 11.5 mph 19.6 mph N/A   Clear
8:15 PM 51.8 °F - 32.0 °F 47% 30.08 in 10.0 mi South 12.7 mph - N/A   Clear
8:35 PM 51.8 °F - 32.0 °F 47% 30.08 in 10.0 mi South 13.8 mph 20.7 mph N/A   Clear
8:55 PM 50.0 °F - 32.0 °F 50% 30.08 in 10.0 mi South 13.8 mph - N/A   Clear
9:15 PM 50.0 °F - 30.2 °F 47% 30.08 in 10.0 mi South 11.5 mph 16.1 mph N/A   Clear
9:35 PM 48.2 °F - 32.0 °F 54% 30.09 in 10.0 mi South 10.4 mph - N/A   Clear
9:55 PM 48.2 °F - 30.2 °F 50% 30.09 in 10.0 mi South 9.2 mph - N/A   Partly Cloudy
10:35 PM 48.2 °F - 32.0 °F 54% 30.09 in 10.0 mi South 11.5 mph - N/A   Overcast
10:55 PM 48.2 °F - 32.0 °F 54% 30.09 in 10.0 mi South 10.4 mph - N/A   Overcast
11:15 PM 50.0 °F - 32.0 °F 50% 30.09 in 10.0 mi South 11.5 mph 17.3 mph N/A   Overcast
11:55 PM 50.0 °F - 32.0 °F 50% 30.08 in 10.0 mi SSE 13.8 mph 19.6 mph N/A   Overcast